Time;durP1;ratioP1;P1;durP2;ratioP2;P2;SDS_P1;SDS_P2;PMS_P1;PMS_P2;Temp;Humidity;BMP_temperature;BMP_pressure;BME280_temperature;BME280_humidity;BME280_pressure;Samples;Min_cycle;Max_cycle;Signal;HPM_P1;HPM_P2
2022/05/27 00:01:54;;;;;;;12.53;7.17;;;;;;;13.04;76.14;98269.86;1778232;80;21008;-84
2022/05/27 00:04:20;;;;;;;13.08;6.85;;;;;;;13.08;75.97;98276.36;1773065;80;21258;-83
2022/05/27 00:06:46;;;;;;;14.95;7.45;;;;;;;13.08;76.11;98276.36;1738662;81;21186;-85
2022/05/27 00:09:13;;;;;;;14.03;5.50;;;;;;;13.07;76.04;98276.88;1757540;80;20972;-84
2022/05/27 00:11:38;;;;;;;10.85;6.12;;;;;;;13.09;76.25;98271.98;1780756;80;21020;-84
2022/05/27 00:14:04;;;;;;;19.17;5.92;;;;;;;13.11;75.94;98275.77;1774192;80;20965;-83
2022/05/27 00:16:30;;;;;;;13.75;7.05;;;;;;;13.15;76.17;98273.53;1779080;80;21878;-85
2022/05/27 00:18:58;;;;;;;9.90;5.03;;;;;;;13.16;75.88;98267.02;1763552;80;20880;-83
2022/05/27 00:21:25;;;;;;;11.38;5.08;;;;;;;13.20;75.74;98272.15;1736533;80;21035;-85
2022/05/27 00:23:51;;;;;;;8.33;4.22;;;;;;;13.22;75.77;98267.77;1751038;80;21080;-85
2022/05/27 00:26:17;;;;;;;9.38;4.53;;;;;;;13.26;75.87;98266.11;1779192;80;20964;-85
2022/05/27 00:28:43;;;;;;;6.95;4.05;;;;;;;13.27;75.60;98265.00;1779087;80;21139;-85
2022/05/27 00:31:09;;;;;;;7.40;4.22;;;;;;;13.31;75.44;98260.58;1736680;82;20963;-84
2022/05/27 00:33:37;;;;;;;9.60;3.40;;;;;;;13.34;75.74;98255.94;1772861;80;21008;-86
2022/05/27 00:36:09;;;;;;;5.62;3.72;;;;;;;13.40;75.43;98252.03;1781022;80;21431;-82
2022/05/27 00:38:38;;;;;;;9.28;4.20;;;;;;;13.41;75.36;98256.92;1779192;79;21069;-83
2022/05/27 00:41:04;;;;;;;8.23;3.77;;;;;;;13.43;75.12;98249.30;1779310;80;21295;-83
2022/05/27 00:43:30;;;;;;;6.42;4.08;;;;;;;13.44;75.02;98253.63;1776367;79;20991;-84
2022/05/27 00:46:06;;;;;;;6.97;3.70;;;;;;;13.47;74.87;98251.12;1764029;80;20881;-85
2022/05/27 00:48:33;;;;;;;4.37;2.27;;;;;;;13.53;74.46;98252.68;1745531;80;21115;-84
2022/05/27 00:50:59;;;;;;;5.35;3.05;;;;;;;13.64;73.75;98248.45;1779379;80;21080;-84
2022/05/27 00:53:35;;;;;;;3.65;2.02;;;;;;;13.74;73.23;98251.02;1774302;80;22004;-83
2022/05/27 00:56:01;;;;;;;5.80;2.50;;;;;;;13.81;72.77;98241.38;1779366;80;21045;-86
2022/05/27 00:58:46;;;;;;;5.67;3.00;;;;;;;13.89;72.34;98244.00;1779035;79;21015;-86
2022/05/27 01:01:13;;;;;;;6.95;2.83;;;;;;;13.90;72.01;98239.36;1759256;80;21027;-86
2022/05/27 01:03:39;;;;;;;7.35;3.50;;;;;;;13.89;71.87;98237.19;1747550;80;21068;-86
2022/05/27 01:06:05;;;;;;;5.72;2.70;;;;;;;13.91;71.64;98239.61;1779491;80;20885;-83
2022/05/27 01:08:31;;;;;;;6.12;2.40;;;;;;;13.89;71.55;98237.73;1775575;79;20842;-86
2022/05/27 01:11:08;;;;;;;5.17;2.50;;;;;;;13.88;71.41;98242.94;1758463;80;20968;-83
2022/05/27 01:13:49;;;;;;;6.25;3.80;;;;;;;13.87;71.28;98236.68;1774233;79;21020;-86
2022/05/27 01:16:43;;;;;;;3.98;2.20;;;;;;;13.87;71.17;98234.51;1776008;80;21012;-84
2022/05/27 01:22:47;;;;;;;4.42;2.25;;;;;;;13.86;70.97;98233.70;1741014;80;21463;-86
2022/05/27 01:26:08;;;;;;;2.77;1.70;;;;;;;13.88;70.80;98234.20;1775240;80;20974;-85
2022/05/27 01:29:18;;;;;;;4.90;1.90;;;;;;;13.91;70.71;98234.16;1779171;80;21080;-86
2022/05/27 01:31:48;;;;;;;5.75;2.70;;;;;;;13.94;70.41;98230.31;1754880;80;21889;-83
2022/05/27 01:34:37;;;;;;;5.45;2.37;;;;;;;13.98;70.19;98220.98;1779239;80;21556;-85
2022/05/27 01:37:11;;;;;;;9.15;2.20;;;;;;;13.99;70.05;98220.67;1744638;80;21027;-83
2022/05/27 01:39:49;;;;;;;3.52;1.82;;;;;;;13.97;69.97;98220.17;1764575;80;21087;-83
2022/05/27 01:42:23;;;;;;;4.12;1.87;;;;;;;13.99;69.84;98213.86;1740893;80;21454;-83
2022/05/27 01:45:06;;;;;;;6.05;2.17;;;;;;;13.98;69.70;98214.17;1743477;80;21036;-84
2022/05/27 01:47:46;;;;;;;7.00;2.22;;;;;;;13.97;69.70;98207.11;1778866;80;21289;-84
2022/05/27 01:50:17;;;;;;;4.97;2.35;;;;;;;13.96;69.67;98206.30;1748617;80;20964;-83
2022/05/27 01:53:04;;;;;;;4.22;2.00;;;;;;;13.93;69.64;98205.54;1777445;79;21008;-83
2022/05/27 01:55:55;;;;;;;5.90;2.37;;;;;;;13.93;69.56;98201.45;1779148;80;21008;-85
2022/05/27 01:58:35;;;;;;;6.47;3.10;;;;;;;13.95;69.45;98206.59;1774531;79;21052;-83
2022/05/27 02:01:01;;;;;;;5.87;2.33;;;;;;;13.89;69.59;98204.50;1776693;80;21933;-83
2022/05/27 02:03:34;;;;;;;8.15;2.62;;;;;;;13.87;69.83;98199.91;1772521;80;20864;-86
2022/05/27 02:06:05;;;;;;;5.37;1.80;;;;;;;13.80;70.17;98202.19;1759071;80;21028;-83
2022/05/27 02:08:36;;;;;;;4.12;1.95;;;;;;;13.74;70.41;98196.56;1757437;79;21019;-83
2022/05/27 02:11:10;;;;;;;3.87;1.57;;;;;;;13.65;70.49;98196.41;1754380;80;21518;-84
2022/05/27 02:13:50;;;;;;;3.37;1.90;;;;;;;13.62;70.82;98194.84;1772989;80;21149;-85
2022/05/27 02:16:28;;;;;;;6.30;2.85;;;;;;;13.59;70.74;98203.59;1779089;80;21051;-85
2022/05/27 02:19:02;;;;;;;6.50;3.02;;;;;;;13.50;71.61;98197.47;1778457;80;21005;-83
2022/05/27 02:21:32;;;;;;;5.60;3.25;;;;;;;13.43;71.33;98194.86;1754744;80;21027;-82
2022/05/27 02:24:12;;;;;;;6.80;2.70;;;;;;;13.30;71.44;98196.38;1752746;80;21060;-84
2022/05/27 02:26:42;;;;;;;8.05;3.50;;;;;;;13.18;72.29;98200.05;1760453;79;21130;-85
2022/05/27 02:29:19;;;;;;;7.87;4.20;;;;;;;13.03;72.98;98195.61;1773834;80;21015;-86
2022/05/27 02:31:49;;;;;;;11.80;5.12;;;;;;;12.86;74.09;98191.20;1744646;81;21238;-84
2022/05/27 02:37:27;;;;;;;13.15;5.65;;;;;;;12.50;74.87;98186.71;1764043;80;21020;-85
2022/05/27 02:39:53;;;;;;;12.47;5.08;;;;;;;12.38;74.93;98187.89;1779534;80;21025;-86
2022/05/27 02:42:31;;;;;;;10.50;5.45;;;;;;;12.30;75.16;98189.06;1778990;80;20986;-83
2022/05/27 02:45:12;;;;;;;14.50;4.50;;;;;;;12.19;75.70;98189.72;1779436;80;21009;-85
2022/05/27 02:47:43;;;;;;;14.80;4.78;;;;;;;12.14;76.64;98185.16;1779128;80;21442;-83
2022/05/27 02:50:19;;;;;;;8.33;4.40;;;;;;;12.08;76.02;98181.41;1763920;80;21470;-83
2022/05/27 02:52:56;;;;;;;6.95;3.30;;;;;;;11.99;75.79;98181.21;1745435;80;21473;-85
2022/05/27 02:55:30;;;;;;;6.45;3.42;;;;;;;11.95;76.88;98180.69;1779237;80;21056;-83
2022/05/27 02:57:58;;;;;;;13.43;5.28;;;;;;;11.91;76.53;98176.94;1755164;80;21024;-85
2022/05/27 03:00:33;;;;;;;9.10;5.65;;;;;;;11.92;76.63;98176.65;1773486;80;21040;-83
2022/05/27 03:02:59;;;;;;;8.75;4.72;;;;;;;11.91;76.58;98179.66;1737051;82;21578;-83
2022/05/27 03:05:30;;;;;;;9.65;4.90;;;;;;;11.86;77.00;98179.13;1772646;80;21111;-84
2022/05/27 03:08:08;;;;;;;15.18;5.22;;;;;;;11.83;76.87;98177.80;1778467;80;21072;-83
2022/05/27 03:10:46;;;;;;;6.55;3.50;;;;;;;11.83;77.89;98177.00;1754035;80;21067;-85
2022/05/27 03:13:29;;;;;;;5.17;2.12;;;;;;;11.83;78.29;98180.52;1778412;80;21040;-85
2022/05/27 03:16:18;;;;;;;3.52;2.45;;;;;;;11.80;78.73;98175.67;1765897;80;21480;-83
2022/05/27 03:19:17;;;;;;;5.15;3.47;;;;;;;11.80;80.15;98175.67;1773873;79;21642;-85
2022/05/27 03:22:12;;;;;;;5.25;2.80;;;;;;;11.80;79.53;98178.94;1779031;79;21028;-84
2022/05/27 03:24:46;;;;;;;3.98;2.25;;;;;;;11.80;78.65;98174.86;1780955;80;22053;-85
2022/05/27 03:27:46;;;;;;;6.08;2.67;;;;;;;11.77;79.38;98179.45;1779015;79;20985;-83
2022/05/27 03:30:22;;;;;;;5.55;3.35;;;;;;;11.76;80.47;98175.92;1778384;80;21085;-85
2022/05/27 03:33:03;;;;;;;9.58;4.05;;;;;;;11.75;81.49;98174.30;1779154;80;21267;-84
2022/05/27 03:35:55;;;;;;;11.63;3.42;;;;;;;11.76;81.20;98171.05;1779171;80;21225;-84
2022/05/27 03:38:32;;;;;;;9.35;4.67;;;;;;;11.78;79.63;98166.13;1774912;80;21032;-86
2022/05/27 03:41:04;;;;;;;8.83;4.17;;;;;;;11.84;79.44;98160.97;1737642;80;20964;-86
2022/05/27 03:43:31;;;;;;;10.78;4.42;;;;;;;11.84;79.04;98162.33;1745078;80;21027;-86
2022/05/27 03:45:59;;;;;;;8.33;3.90;;;;;;;11.88;79.37;98166.11;1755566;80;21028;-83
2022/05/27 03:48:27;;;;;;;9.65;4.60;;;;;;;11.85;79.47;98163.39;1778895;79;22039;-86
2022/05/27 03:50:57;;;;;;;7.75;3.80;;;;;;;11.89;79.75;98165.56;1779377;80;21412;-84
2022/05/27 03:54:03;;;;;;;7.45;4.12;;;;;;;11.94;79.55;98164.14;1777780;79;21051;-84
2022/05/27 03:55:50;;;;;;;8.53;4.08;;;;;;;11.98;79.37;98163.84;1733758;80;21469;-86
2022/05/27 03:58:17;;;;;;;6.25;3.10;;;;;;;12.02;79.62;98166.24;1740472;80;21141;-85
2022/05/27 04:00:43;;;;;;;5.53;2.98;;;;;;;12.06;79.87;98165.40;1779155;80;21453;-86
2022/05/27 04:03:10;;;;;;;5.65;3.05;;;;;;;12.08;79.79;98163.20;1778753;80;20993;-83
2022/05/27 04:05:36;;;;;;;6.55;3.95;;;;;;;12.09;79.62;98153.15;1759901;80;21449;-86
2022/05/27 04:08:02;;;;;;;10.00;3.47;;;;;;;12.13;79.42;98152.82;1720177;81;20983;-84
2022/05/27 04:10:28;;;;;;;6.50;3.58;;;;;;;12.18;79.35;98155.50;1771802;80;21091;-84
2022/05/27 04:12:54;;;;;;;10.05;3.47;;;;;;;12.23;79.22;98150.03;1737150;82;21028;-86
2022/05/27 04:15:20;;;;;;;5.78;3.65;;;;;;;12.25;79.40;98154.63;1776483;80;20894;-85
2022/05/27 04:17:46;;;;;;;14.05;3.70;;;;;;;12.21;79.62;98149.48;1779519;80;20874;-86
2022/05/27 04:20:16;;;;;;;7.85;3.87;;;;;;;12.19;79.76;98146.25;1779435;80;20889;-83
2022/05/27 04:22:42;;;;;;;10.58;5.05;;;;;;;12.16;79.69;98140.05;1778574;80;22034;-86
2022/05/27 04:25:08;;;;;;;9.03;4.75;;;;;;;12.18;79.76;98145.99;1779063;80;20938;-85
2022/05/27 04:27:35;;;;;;;10.68;5.83;;;;;;;12.19;79.83;98144.09;1779059;79;21483;-86
2022/05/27 04:30:01;;;;;;;11.75;5.80;;;;;;;12.25;79.64;98145.11;1779555;80;21013;-84
2022/05/27 04:32:27;;;;;;;8.55;3.92;;;;;;;12.32;79.70;98144.23;1753666;80;21475;-86
2022/05/27 04:34:54;;;;;;;6.58;4.10;;;;;;;12.38;79.58;98143.61;1778885;80;21181;-84
2022/05/27 04:37:20;;;;;;;6.03;3.98;;;;;;;12.45;79.62;98144.08;1739499;80;21397;-82
2022/05/27 04:39:46;;;;;;;7.20;4.12;;;;;;;12.46;79.41;98142.17;1745461;80;20986;-86
2022/05/27 04:42:12;;;;;;;10.00;4.30;;;;;;;12.57;79.25;98142.34;1737045;80;20953;-84
2022/05/27 04:44:38;;;;;;;7.30;3.67;;;;;;;12.68;79.04;98138.39;1764670;80;21639;-84
2022/05/27 04:47:05;;;;;;;8.25;4.05;;;;;;;12.99;78.41;98132.03;1779249;79;21374;-85
2022/05/27 04:52:16;;;;;;;6.22;3.35;;;;;;;13.26;77.72;98130.86;1778746;79;20992;-86
2022/05/27 04:54:42;;;;;;;6.28;3.42;;;;;;;13.35;76.58;98128.28;1778736;80;20957;-83
2022/05/27 04:57:14;;;;;;;4.62;3.30;;;;;;;13.33;76.66;98130.49;1779298;80;20985;-86
2022/05/27 04:59:40;;;;;;;8.60;4.42;;;;;;;13.39;76.29;98130.66;1773322;79;21291;-86
2022/05/27 05:02:06;;;;;;;8.98;5.33;;;;;;;13.52;76.47;98125.03;1767597;80;21504;-83
2022/05/27 05:04:32;;;;;;;8.45;4.47;;;;;;;13.61;76.27;98129.25;1761614;80;20866;-84
2022/05/27 05:07:05;;;;;;;17.10;5.70;;;;;;;13.87;75.60;98122.83;1777447;79;20893;-86
2022/05/27 05:09:30;;;;;;;10.32;4.10;;;;;;;14.01;75.53;98123.66;1763267;80;21085;-86
2022/05/27 05:11:57;;;;;;;7.60;3.42;;;;;;;14.23;75.04;98114.27;1760417;80;21074;-86
2022/05/27 05:14:23;;;;;;;9.28;3.40;;;;;;;14.52;74.39;98107.75;1758901;80;21767;-86
2022/05/27 05:16:49;;;;;;;5.75;3.05;;;;;;;14.78;73.96;98102.59;1773680;80;20995;-84
2022/05/27 05:19:15;;;;;;;5.60;3.27;;;;;;;15.05;72.33;98099.84;1756470;80;20969;-84
2022/05/27 05:21:40;;;;;;;5.55;2.65;;;;;;;15.27;71.95;98095.52;1757745;79;20905;-86
2022/05/27 05:24:06;;;;;;;5.22;2.70;;;;;;;15.38;70.94;98092.80;1765918;80;21315;-86
2022/05/27 05:26:32;;;;;;;3.75;1.80;;;;;;;15.48;70.52;98091.22;1765942;80;20857;-84
2022/05/27 05:28:58;;;;;;;2.35;1.42;;;;;;;15.66;69.34;98085.34;1759140;79;20859;-85
2022/05/27 05:31:27;;;;;;;3.77;1.50;;;;;;;15.88;68.74;98087.23;1745136;80;20878;-86
2022/05/27 05:33:58;;;;;;;2.65;1.20;;;;;;;16.02;67.57;98080.58;1768994;79;20965;-87
2022/05/27 05:36:21;;;;;;;4.80;1.82;;;;;;;16.19;65.72;98080.42;1766547;79;21115;-83
2022/05/27 05:38:47;;;;;;;1.02;0.80;;;;;;;16.38;65.08;98075.52;1761036;80;21554;-83
2022/05/27 05:41:13;;;;;;;3.87;2.00;;;;;;;16.60;64.04;98077.37;1768111;80;20854;-84
2022/05/27 05:43:38;;;;;;;3.05;1.22;;;;;;;16.77;62.48;98071.17;1768133;80;21004;-84
2022/05/27 05:46:04;;;;;;;2.70;1.10;;;;;;;16.93;62.22;98071.52;1766166;79;20901;-81
2022/05/27 05:48:30;;;;;;;3.15;1.30;;;;;;;17.08;60.97;98059.52;1765571;79;21856;-81
2022/05/27 05:50:56;;;;;;;4.75;1.55;;;;;;;17.22;61.09;98062.69;1764975;79;21073;-81
2022/05/27 05:53:22;;;;;;;1.32;1.05;;;;;;;17.36;60.31;98053.75;1763563;79;21586;-81
2022/05/27 05:55:48;;;;;;;3.67;1.27;;;;;;;17.53;60.38;98057.05;1763212;80;20984;-81
2022/05/27 05:58:14;;;;;;;1.85;0.80;;;;;;;17.66;59.84;98060.95;1753784;79;21525;-81
2022/05/27 06:00:40;;;;;;;1.62;1.12;;;;;;;17.83;58.88;98060.15;1759014;79;21133;-81
2022/05/27 06:03:06;;;;;;;2.90;0.98;;;;;;;17.91;58.80;98056.59;1768700;79;20945;-81
2022/05/27 06:05:32;;;;;;;3.37;1.27;;;;;;;18.06;58.50;98053.89;1758805;80;20900;-82
2022/05/27 06:07:58;;;;;;;2.05;1.10;;;;;;;18.27;57.95;98053.39;1755420;78;20889;-81
2022/05/27 06:10:24;;;;;;;5.15;1.15;;;;;;;18.47;58.16;98050.50;1769964;79;21331;-81
2022/05/27 06:12:50;;;;;;;2.58;1.10;;;;;;;18.83;57.40;98057.43;1763573;79;21087;-81
2022/05/27 06:15:16;;;;;;;4.50;1.27;;;;;;;19.07;56.20;98055.42;1765528;79;21570;-82
2022/05/27 06:17:42;;;;;;;1.80;1.50;;;;;;;19.38;56.37;98054.42;1773969;79;21021;-82
2022/05/27 06:20:08;;;;;;;4.25;1.27;;;;;;;19.74;54.72;98046.14;1765044;79;20898;-82
2022/05/27 06:22:34;;;;;;;2.62;1.20;;;;;;;19.93;52.90;98033.23;1757546;79;21040;-82
2022/05/27 06:25:00;;;;;;;7.42;1.80;;;;;;;20.00;53.00;98040.36;1751801;80;22280;-82
2022/05/27 06:27:27;;;;;;;2.55;0.85;;;;;;;20.19;52.52;98043.37;1768324;79;21024;-83
2022/05/27 06:35:21;;;;;;;4.33;1.10;;;;;;;20.82;49.94;98039.72;1762256;79;21102;-82
2022/05/27 06:37:48;;;;;;;5.22;1.10;;;;;;;21.20;49.87;98029.44;1764308;79;21272;-84
2022/05/27 06:40:14;;;;;;;3.10;1.10;;;;;;;21.18;47.81;98028.39;1761960;78;21036;-85
2022/05/27 06:42:40;;;;;;;5.25;2.45;;;;;;;21.17;49.10;98018.52;1762274;79;20878;-85
2022/05/27 06:45:08;;;;;;;2.10;1.10;;;;;;;21.32;48.80;98022.53;1727628;80;20904;-86
2022/05/27 06:47:34;;;;;;;2.58;0.90;;;;;;;21.40;48.41;98020.20;1762530;80;21060;-86
2022/05/27 06:50:00;;;;;;;2.20;0.88;;;;;;;21.49;48.31;98009.03;1751809;80;21120;-86
2022/05/27 06:52:26;;;;;;;2.00;0.98;;;;;;;21.50;48.22;98007.30;1764935;79;20925;-87
2022/05/27 06:54:52;;;;;;;3.52;0.78;;;;;;;21.64;47.07;98007.70;1764256;78;21115;-87
2022/05/27 06:57:18;;;;;;;1.60;0.70;;;;;;;21.74;46.65;97996.73;1769047;80;20906;-88
2022/05/27 06:59:44;;;;;;;4.15;1.15;;;;;;;21.57;46.52;97999.22;1765833;79;22395;-87
2022/05/27 07:02:10;;;;;;;1.85;1.10;;;;;;;21.50;46.82;97994.89;1763033;80;21694;-87
2022/05/27 07:04:36;;;;;;;3.92;0.95;;;;;;;21.68;46.39;97985.14;1758606;80;20956;-87
2022/05/27 07:07:04;;;;;;;1.62;1.10;;;;;;;21.83;44.67;97987.70;1770555;79;20895;-88
2022/05/27 07:09:35;;;;;;;2.70;0.90;;;;;;;21.73;46.14;97986.85;1765740;80;21084;-88
2022/05/27 07:11:58;;;;;;;1.93;1.17;;;;;;;21.89;44.56;97975.27;1769461;80;21449;-87
2022/05/27 07:14:23;;;;;;;2.90;1.30;;;;;;;22.01;44.80;97977.70;1751966;80;21113;-87
2022/05/27 07:16:49;;;;;;;4.95;1.42;;;;;;;22.01;44.06;97987.36;1767047;79;20928;-87
2022/05/27 07:19:19;;;;;;;3.70;1.30;;;;;;;21.96;43.29;97978.76;1768313;80;20972;-86
2022/05/27 07:21:46;;;;;;;4.72;1.37;;;;;;;21.90;43.19;97980.20;1771000;80;20961;-85
2022/05/27 07:24:14;;;;;;;3.12;1.50;;;;;;;21.92;42.94;97977.30;1769029;79;21400;-86
2022/05/27 07:26:40;;;;;;;2.45;1.50;;;;;;;21.88;43.76;97979.76;1777301;80;21078;-85
2022/05/27 07:29:06;;;;;;;4.78;2.02;;;;;;;21.80;44.00;97970.50;1771752;79;21452;-85
2022/05/27 07:31:36;;;;;;;3.02;1.47;;;;;;;21.99;43.95;97968.99;1773000;79;20960;-84
2022/05/27 07:34:02;;;;;;;3.90;1.40;;;;;;;21.97;44.07;97967.98;1764448;79;22362;-84
2022/05/27 07:36:28;;;;;;;3.98;1.67;;;;;;;21.92;44.30;97973.16;1777431;79;20838;-85
2022/05/27 07:38:54;;;;;;;6.28;1.90;;;;;;;21.84;43.66;97971.95;1762707;80;21132;-84
2022/05/27 07:41:20;;;;;;;3.02;1.50;;;;;;;21.56;43.74;97963.16;1762091;79;20897;-84
2022/05/27 07:43:46;;;;;;;4.10;1.60;;;;;;;22.18;43.77;97947.83;1776681;80;21047;-85
2022/05/27 07:46:13;;;;;;;2.33;1.07;;;;;;;22.92;43.60;97954.86;1758305;79;21111;-84
2022/05/27 07:48:39;;;;;;;3.37;1.30;;;;;;;23.57;41.02;97947.24;1776149;79;21504;-85
2022/05/27 07:51:05;;;;;;;3.67;1.00;;;;;;;24.13;40.68;97943.33;1773271;79;21167;-85
2022/05/27 07:53:32;;;;;;;2.55;1.10;;;;;;;24.61;37.96;97938.16;1771349;79;22115;-85
2022/05/27 07:55:58;;;;;;;3.35;1.98;;;;;;;24.57;38.68;97942.84;1775839;80;20982;-85
2022/05/27 07:58:24;;;;;;;3.60;1.10;;;;;;;24.68;39.77;97942.39;1777030;79;21276;-85
2022/05/27 08:00:50;;;;;;;15.75;2.80;;;;;;;24.93;39.40;97941.34;1768707;79;21034;-85
2022/05/27 08:03:18;;;;;;;2.98;1.30;;;;;;;25.17;37.59;97922.66;1775689;80;21045;-87
2022/05/27 08:05:44;;;;;;;6.50;1.43;;;;;;;25.37;37.27;97908.02;1775920;79;20966;-87
2022/05/27 08:08:09;;;;;;;2.70;1.10;;;;;;;25.56;36.15;97917.55;1770453;79;20993;-87
2022/05/27 08:10:36;;;;;;;2.30;1.22;;;;;;;25.71;36.24;97924.05;1768013;79;20968;-87
2022/05/27 08:13:02;;;;;;;4.58;1.10;;;;;;;25.92;35.95;97915.94;1774237;79;21428;-86
2022/05/27 08:15:28;;;;;;;8.10;2.55;;;;;;;26.33;34.24;97907.53;1776236;79;21151;-87
2022/05/27 08:17:55;;;;;;;2.85;1.20;;;;;;;26.46;34.92;97905.25;1761655;78;21104;-87
2022/05/27 08:20:24;;;;;;;5.17;1.30;;;;;;;26.54;34.63;97907.69;1767126;79;21548;-87
2022/05/27 08:22:50;;;;;;;3.33;1.22;;;;;;;26.93;33.48;97902.94;1761976;79;21111;-87
2022/05/27 08:25:17;;;;;;;5.08;0.93;;;;;;;27.06;34.36;97894.45;1762077;79;21547;-86
2022/05/27 08:27:43;;;;;;;1.92;0.90;;;;;;;27.76;34.90;97886.69;1771858;79;21076;-87
2022/05/27 08:30:11;;;;;;;2.83;1.05;;;;;;;28.77;31.38;97884.00;1767251;79;21623;-87
2022/05/27 08:32:37;;;;;;;9.08;0.90;;;;;;;28.27;31.66;97875.73;1771271;79;23821;-87
2022/05/27 08:38:01;;;;;;;2.37;0.93;;;;;;;28.25;30.90;97878.92;1767016;79;21114;-88
2022/05/27 08:40:38;;;;;;;4.58;1.47;;;;;;;28.08;32.01;97883.91;1768984;79;21109;-89
2022/05/27 08:43:21;;;;;;;2.72;1.42;;;;;;;28.71;31.61;97888.39;1762010;79;21122;-89
2022/05/27 08:45:56;;;;;;;1.65;0.90;;;;;;;29.40;30.00;97875.97;1754307;80;21080;-89
2022/05/27 08:48:22;;;;;;;3.80;1.65;;;;;;;27.83;31.14;97866.61;1772447;79;21025;-89
2022/05/27 08:50:53;;;;;;;2.80;1.77;;;;;;;28.48;31.03;97867.97;1776788;79;20890;-89
2022/05/27 08:53:30;;;;;;;4.08;1.45;;;;;;;29.18;30.65;97866.92;1770830;80;21019;-89
2022/05/27 09:01:46;;;;;;;3.77;1.00;;;;;;;30.18;28.08;97864.84;1761567;79;21143;-89
2022/05/27 09:04:24;;;;;;;3.02;1.00;;;;;;;30.71;27.93;97859.32;1763743;79;20929;-89
2022/05/27 09:06:55;;;;;;;4.30;1.27;;;;;;;31.14;26.58;97855.98;1777164;79;21134;-89
2022/05/27 09:09:26;;;;;;;3.35;0.80;;;;;;;31.39;26.80;97841.67;1774166;78;21040;-89
2022/05/27 09:12:04;;;;;;;3.30;1.00;;;;;;;31.29;25.97;97848.22;1775032;78;20978;-89
2022/05/27 09:14:33;;;;;;;3.67;1.20;;;;;;;30.66;26.96;97852.78;1752511;79;21113;-89
2022/05/27 09:17:05;;;;;;;3.08;0.68;;;;;;;30.58;26.85;97847.84;1767693;79;21017;-89
2022/05/27 09:19:53;;;;;;;2.92;0.90;;;;;;;29.16;28.50;97855.98;1775011;79;21133;-89
2022/05/27 09:22:34;;;;;;;4.72;1.12;;;;;;;28.21;29.80;97846.71;1771938;78;21110;-89
2022/05/27 09:25:22;;;;;;;1.52;0.98;;;;;;;29.11;29.19;97837.66;1761028;79;21052;-89
2022/05/27 09:28:11;;;;;;;4.40;1.10;;;;;;;30.16;28.15;97826.73;1763438;79;20992;-86
2022/05/27 09:30:37;;;;;;;4.87;1.05;;;;;;;30.94;27.14;97822.89;1765270;78;21103;-86
2022/05/27 09:33:06;;;;;;;3.75;1.10;;;;;;;31.56;26.36;97811.20;1768899;80;21024;-86
2022/05/27 09:35:53;;;;;;;4.40;1.12;;;;;;;32.26;25.67;97819.62;1768012;79;21024;-86
2022/05/27 09:38:25;;;;;;;2.60;0.90;;;;;;;32.35;25.35;97820.48;1693879;82;21015;-86
2022/05/27 09:41:03;;;;;;;2.10;1.30;;;;;;;33.29;23.46;97808.92;1767009;80;21090;-86
2022/05/27 09:43:50;;;;;;;;;;;;;;;33.29;23.46;97808.92;1769885;79;21087;-86
2022/05/27 09:46:26;;;;;;;3.05;0.82;;;;;;;32.83;23.68;97803.70;1751462;79;21074;-86
2022/05/27 09:48:52;;;;;;;2.17;1.22;;;;;;;32.93;23.97;97801.30;1745311;80;21100;-86
2022/05/27 09:51:18;;;;;;;2.60;1.02;;;;;;;33.07;24.58;97801.59;1767940;78;21570;-86
2022/05/27 09:53:49;;;;;;;2.33;0.72;;;;;;;32.52;24.85;97804.53;1769507;78;20879;-86
2022/05/27 09:56:16;;;;;;;2.83;0.78;;;;;;;30.27;27.21;97798.70;1775281;79;21063;-86
2022/05/27 09:58:44;;;;;;;3.40;0.88;;;;;;;29.59;27.95;97799.91;1769031;79;21757;-86
2022/05/27 10:01:25;;;;;;;2.25;1.22;;;;;;;29.85;27.86;97799.89;1777366;79;21087;-86
2022/05/27 10:04:09;;;;;;;3.72;0.95;;;;;;;31.00;26.25;97796.80;1765050;78;21079;-86
2022/05/27 10:06:35;;;;;;;7.28;1.07;;;;;;;31.00;26.37;97787.62;1762484;79;21427;-86
2022/05/27 10:09:07;;;;;;;3.42;1.00;;;;;;;31.36;26.25;97775.31;1752015;80;21112;-86
2022/05/27 10:11:53;;;;;;;3.58;1.42;;;;;;;32.69;24.25;97773.94;1721235;80;21115;-86
2022/05/27 10:14:32;;;;;;;4.45;1.15;;;;;;;32.69;24.25;97773.94;1761871;80;21059;-86
2022/05/27 10:17:09;;;;;;;3.12;0.60;;;;;;;33.68;23.39;97774.94;1757561;79;21036;-86
2022/05/27 10:19:40;;;;;;;1.70;0.90;;;;;;;33.59;23.46;97773.53;1754538;79;21024;-86
2022/05/27 10:22:28;;;;;;;2.33;1.15;;;;;;;31.31;25.83;97782.20;1756956;79;21060;-87
2022/05/27 10:25:07;;;;;;;2.10;1.20;;;;;;;32.35;24.84;97773.44;1762291;78;21112;-86
2022/05/27 10:27:40;;;;;;;2.50;0.90;;;;;;;30.08;26.93;97776.94;1779816;79;21532;-86
2022/05/27 10:30:30;;;;;;;3.15;1.05;;;;;;;29.12;28.46;97768.13;1773116;79;20970;-86
2022/05/27 10:33:16;;;;;;;1.92;1.02;;;;;;;29.53;28.64;97762.48;1752536;78;21523;-86
2022/05/27 10:35:43;;;;;;;4.08;1.00;;;;;;;28.49;29.36;97751.13;1763053;80;21077;-87
2022/05/27 10:38:23;;;;;;;7.50;1.57;;;;;;;28.16;30.55;97754.59;1770705;79;21197;-86
2022/05/27 10:41:09;;;;;;;2.55;1.17;;;;;;;29.98;28.21;97746.48;1772650;79;21511;-86
2022/05/27 10:44:14;;;;;;;2.65;1.10;;;;;;;29.58;28.91;97749.48;1772151;79;21091;-87
2022/05/27 10:46:54;;;;;;;3.52;1.10;;;;;;;30.96;27.56;97748.53;1769189;80;21013;-87
2022/05/27 10:50:01;;;;;;;3.05;1.30;;;;;;;29.83;28.64;97740.88;1770435;78;21125;-88
2022/05/27 10:52:53;;;;;;;7.53;1.47;;;;;;;30.14;28.25;97750.14;1772360;79;21148;-88
2022/05/27 10:55:56;;;;;;;10.93;1.70;;;;;;;29.33;29.26;97730.13;1759020;79;21000;-88
2022/05/27 11:02:05;;;;;;;3.47;1.12;;;;;;;28.54;30.04;97733.40;1756825;80;21152;-87
2022/05/27 11:05:03;;;;;;;4.92;0.88;;;;;;;27.70;31.65;97729.06;1757870;79;21208;-86
2022/05/27 11:07:46;;;;;;;4.83;1.22;;;;;;;30.57;28.13;97712.07;1771068;79;21862;-86
2022/05/27 11:10:21;;;;;;;3.00;0.98;;;;;;;30.66;27.94;97719.18;1701358;82;21016;-87
2022/05/27 11:16:33;;;;;;;2.40;0.80;;;;;;;28.42;30.26;97717.13;1699613;81;21010;-86
2022/05/27 11:19:53;;;;;;;5.65;1.42;;;;;;;29.79;28.89;97705.99;1697948;81;21060;-86
2022/05/27 11:22:59;;;;;;;6.08;1.05;;;;;;;28.63;29.58;97699.52;1711621;80;22101;-88
2022/05/27 11:25:35;;;;;;;4.47;1.15;;;;;;;29.92;28.71;97690.31;1725365;80;21167;-86
2022/05/27 11:28:33;;;;;;;12.37;1.22;;;;;;;28.18;30.37;97696.49;1723070;80;21072;-87
2022/05/27 11:31:08;;;;;;;3.45;0.80;;;;;;;27.70;31.21;97700.44;1723802;80;21056;-86
2022/05/27 11:33:44;;;;;;;4.80;1.00;;;;;;;26.70;32.78;97711.47;1737426;81;21074;-86
2022/05/27 11:36:34;;;;;;;3.72;1.05;;;;;;;25.97;33.42;97701.05;1768680;79;21517;-86
2022/05/27 11:39:50;;;;;;;2.47;0.95;;;;;;;25.72;34.39;97695.35;1731598;81;21049;-86
2022/05/27 11:42:33;;;;;;;2.72;1.42;;;;;;;25.77;34.39;97697.18;1716629;81;21567;-86
2022/05/27 11:45:08;;;;;;;6.00;1.20;;;;;;;24.90;36.31;97689.14;1755350;79;21067;-86
2022/05/27 11:48:08;;;;;;;4.58;1.10;;;;;;;24.57;36.50;97697.72;1776638;78;21503;-86
2022/05/27 11:51:08;;;;;;;2.17;0.90;;;;;;;24.29;37.36;97697.39;1774926;78;21144;-86
2022/05/27 11:53:59;;;;;;;5.08;1.00;;;;;;;24.03;38.18;97695.48;1729204;80;21088;-85
2022/05/27 11:56:37;;;;;;;2.72;1.17;;;;;;;23.68;38.82;97693.05;1736158;80;21029;-86
2022/05/27 11:59:25;;;;;;;3.33;1.52;;;;;;;23.40;39.34;97694.16;1739608;80;21044;-85
2022/05/27 12:01:57;;;;;;;4.15;1.42;;;;;;;23.30;39.85;97691.45;1719007;82;21119;-85
2022/05/27 12:04:50;;;;;;;3.55;1.10;;;;;;;23.16;40.27;97691.25;1736444;80;21384;-86
2022/05/27 12:07:52;;;;;;;3.77;1.55;;;;;;;23.26;40.64;97680.14;1735394;80;21152;-86
2022/05/27 12:10:40;;;;;;;8.28;1.30;;;;;;;23.11;41.00;97671.41;1770977;79;21078;-86
2022/05/27 12:13:33;;;;;;;6.20;1.67;;;;;;;23.04;41.13;97681.75;1767059;79;21424;-86
2022/05/27 12:16:21;;;;;;;4.72;1.32;;;;;;;22.85;41.35;97677.10;1743901;80;21143;-88
2022/05/27 12:19:00;;;;;;;8.93;2.10;;;;;;;22.97;41.06;97669.99;1745024;80;21096;-88
2022/05/27 12:21:29;;;;;;;5.15;1.30;;;;;;;23.11;41.21;97669.44;1762781;79;21045;-88
2022/05/27 12:24:24;;;;;;;3.10;1.60;;;;;;;23.26;41.03;97673.23;1768349;79;21124;-88
2022/05/27 12:26:52;;;;;;;6.30;1.92;;;;;;;23.25;41.13;97678.55;1771427;80;21051;-87
2022/05/27 12:29:18;;;;;;;8.50;1.40;;;;;;;23.11;41.25;97674.97;1764898;78;21107;-88
2022/05/27 12:31:44;;;;;;;3.27;1.50;;;;;;;23.00;41.64;97658.81;1778069;79;21060;-88